Time;durP1;ratioP1;P1;durP2;ratioP2;P2;SDS_P1;SDS_P2;PMS_P1;PMS_P2;Temp;Humidity;BMP_temperature;BMP_pressure;BME280_temperature;BME280_humidity;BME280_pressure;Samples;Min_cycle;Max_cycle;Signal;HPM_P1;HPM_P2
2023/05/02 00:02:02;;;;;;;1.90;1.10;;;;;;;19.32;58.23;95663.47;5033240;28;20028;-29
2023/05/02 00:04:28;;;;;;;1.92;1.40;;;;;;;19.22;58.48;95665.00;5033704;28;20029;-31
2023/05/02 00:06:53;;;;;;;1.33;1.20;;;;;;;19.13;58.54;95662.50;5033483;28;20026;-31
2023/05/02 00:09:19;;;;;;;1.80;1.23;;;;;;;19.19;58.16;95660.50;5033066;28;20036;-29
2023/05/02 00:11:45;;;;;;;1.60;1.30;;;;;;;19.08;58.76;95660.50;5033094;28;20528;-29
2023/05/02 00:14:10;;;;;;;2.00;0.95;;;;;;;19.06;58.63;95649.25;5033021;28;20417;-29
2023/05/02 00:16:35;;;;;;;1.13;0.95;;;;;;;19.21;58.18;95657.25;5033064;28;20020;-29
2023/05/02 00:19:01;;;;;;;2.35;0.98;;;;;;;19.27;58.03;95641.50;5032925;28;20108;-29
2023/05/02 00:21:28;;;;;;;1.40;1.17;;;;;;;19.24;58.14;95645.25;5033025;28;20029;-29
2023/05/02 00:23:55;;;;;;;2.22;1.33;;;;;;;19.21;58.29;95636.00;5032782;28;20028;-29
2023/05/02 00:26:21;;;;;;;1.10;1.00;;;;;;;19.22;58.17;95637.50;5032901;28;20358;-29
2023/05/02 00:28:47;;;;;;;2.75;0.98;;;;;;;19.21;58.14;95633.25;5033365;28;20017;-31
2023/05/02 00:31:12;;;;;;;3.17;1.00;;;;;;;19.23;58.04;95632.75;5033023;28;20389;-29
2023/05/02 00:33:38;;;;;;;1.15;0.70;;;;;;;19.16;58.02;95633.28;5032868;28;20025;-28
2023/05/02 00:36:03;;;;;;;2.10;0.70;;;;;;;19.08;58.42;95629.53;5032705;28;20048;-30
2023/05/02 00:38:29;;;;;;;1.45;0.82;;;;;;;19.17;58.14;95632.00;5032987;28;20351;-29
2023/05/02 00:40:55;;;;;;;1.88;0.80;;;;;;;19.26;57.72;95623.50;5032705;28;20097;-30
2023/05/02 00:43:20;;;;;;;1.48;0.82;;;;;;;19.19;58.02;95615.75;5034741;28;20025;-29
2023/05/02 00:45:46;;;;;;;1.10;0.80;;;;;;;19.21;57.71;95613.25;5034722;28;20025;-30
2023/05/02 00:48:12;;;;;;;1.13;1.00;;;;;;;19.23;57.74;95617.00;5040350;28;20018;-29
2023/05/02 00:50:42;;;;;;;0.95;0.80;;;;;;;19.31;57.47;95607.00;5032991;28;20068;-29
2023/05/02 00:53:08;;;;;;;1.58;0.85;;;;;;;19.21;58.06;95607.75;5032701;28;20726;-30
2023/05/02 00:55:34;;;;;;;1.60;0.70;;;;;;;19.35;57.34;95606.75;5032676;28;20045;-29
2023/05/02 00:58:05;;;;;;;2.67;0.80;;;;;;;19.27;57.78;95606.53;5034226;28;20017;-29
2023/05/02 01:01:05;;;;;;;1.40;0.80;;;;;;;19.09;58.22;95601.53;5036639;28;20022;-29
2023/05/02 01:03:58;;;;;;;1.00;0.77;;;;;;;19.05;58.17;95600.28;5036677;28;20483;-29
2023/05/02 01:06:23;;;;;;;1.05;0.70;;;;;;;19.19;57.70;95600.03;5043709;28;20037;-29
2023/05/02 01:08:59;;;;;;;1.90;0.70;;;;;;;19.16;57.63;95609.28;5036943;28;20033;-29
2023/05/02 01:11:38;;;;;;;0.90;0.70;;;;;;;19.15;57.65;95596.78;5035951;28;20029;-30
2023/05/02 01:14:07;;;;;;;1.08;0.98;;;;;;;19.18;57.88;95595.03;5036327;28;20053;-29
2023/05/02 01:16:39;;;;;;;0.80;0.60;;;;;;;19.16;57.64;95597.53;5037106;28;20043;-29
2023/05/02 01:19:08;;;;;;;0.93;0.77;;;;;;;19.23;57.58;95600.53;5034749;28;20355;-29
2023/05/02 01:21:35;;;;;;;2.53;0.80;;;;;;;19.18;57.50;95587.53;5036192;28;20024;-29
2023/05/02 01:24:08;;;;;;;1.20;0.80;;;;;;;19.00;57.88;95590.81;5036106;28;20476;-30
2023/05/02 01:26:42;;;;;;;2.10;0.90;;;;;;;19.21;57.33;95594.03;5041603;28;20028;-29
2023/05/02 01:29:10;;;;;;;1.30;1.00;;;;;;;19.04;57.84;95594.03;5036280;28;20373;-30
2023/05/02 01:31:39;;;;;;;2.72;0.70;;;;;;;19.06;57.69;95593.53;5035922;28;20031;-29
2023/05/02 01:34:11;;;;;;;1.95;0.70;;;;;;;19.20;57.40;95584.28;5036093;28;20372;-29
2023/05/02 01:36:42;;;;;;;0.85;0.65;;;;;;;19.15;57.34;95587.81;5035886;28;20170;-30
2023/05/02 01:39:09;;;;;;;0.95;0.70;;;;;;;19.17;57.29;95582.53;5035847;28;20028;-29
2023/05/02 01:41:36;;;;;;;0.63;0.60;;;;;;;19.02;57.71;95585.56;5035814;28;20056;-29
2023/05/02 01:44:03;;;;;;;1.05;0.63;;;;;;;18.98;57.76;95576.84;5035814;28;20017;-29
2023/05/02 01:46:38;;;;;;;1.17;0.63;;;;;;;19.01;57.71;95584.06;5041267;28;20067;-29
2023/05/02 01:49:06;;;;;;;1.00;0.70;;;;;;;19.24;57.16;95587.53;5039262;28;20053;-29
2023/05/02 01:51:34;;;;;;;1.08;0.70;;;;;;;19.24;57.17;95590.28;5041077;28;20040;-30
2023/05/02 01:54:03;;;;;;;0.68;0.50;;;;;;;19.22;56.98;95585.28;5035365;28;20194;-29
2023/05/02 01:56:32;;;;;;;0.75;0.60;;;;;;;19.31;56.81;95589.75;5035475;28;20461;-29
2023/05/02 01:58:59;;;;;;;1.88;0.75;;;;;;;19.24;56.84;95587.53;5035584;28;20165;-31
2023/05/02 02:01:27;;;;;;;1.10;0.55;;;;;;;19.32;56.58;95585.75;5035675;28;20021;-29
2023/05/02 02:03:57;;;;;;;0.80;0.60;;;;;;;19.27;56.77;95570.03;5035443;28;20055;-29
2023/05/02 02:06:23;;;;;;;0.80;0.60;;;;;;;19.14;57.20;95572.56;5042417;28;20036;-29
2023/05/02 02:08:49;;;;;;;0.90;0.68;;;;;;;19.18;56.69;95579.28;5034878;28;20048;-31
2023/05/02 02:11:21;;;;;;;0.60;0.60;;;;;;;19.29;56.83;95576.50;5035009;28;20056;-29
2023/05/02 02:13:50;;;;;;;0.90;0.60;;;;;;;19.06;57.68;95577.06;5035352;28;20025;-29
2023/05/02 02:16:24;;;;;;;0.88;0.60;;;;;;;19.24;56.81;95573.78;5035028;28;20048;-29
2023/05/02 02:18:53;;;;;;;0.90;0.60;;;;;;;19.21;56.96;95572.03;5035410;28;20053;-29
2023/05/02 02:21:20;;;;;;;1.60;0.73;;;;;;;19.34;56.58;95573.00;5033554;28;20025;-29
2023/05/02 02:23:50;;;;;;;0.68;0.50;;;;;;;19.25;56.91;95575.28;5035297;28;20032;-29
2023/05/02 02:26:18;;;;;;;1.48;0.52;;;;;;;19.13;57.10;95571.06;5034686;28;20035;-29
2023/05/02 02:28:44;;;;;;;0.60;0.50;;;;;;;19.14;57.18;95572.56;5034226;28;20377;-29
2023/05/02 02:31:10;;;;;;;0.47;0.40;;;;;;;19.21;57.02;95574.78;5034824;28;20018;-30
2023/05/02 02:33:36;;;;;;;0.40;0.40;;;;;;;19.09;57.28;95574.06;5036724;28;20107;-29
2023/05/02 02:36:29;;;;;;;0.60;0.45;;;;;;;19.00;57.46;95572.34;5041000;28;20025;-30
2023/05/02 02:39:11;;;;;;;0.68;0.47;;;;;;;19.22;56.72;95581.78;5041776;28;20065;-31
2023/05/02 02:42:00;;;;;;;0.57;0.43;;;;;;;19.00;57.20;95577.84;5034473;28;20540;-29
2023/05/02 02:44:40;;;;;;;0.45;0.38;;;;;;;19.09;57.08;95584.31;5034768;28;20021;-29
2023/05/02 02:47:14;;;;;;;1.35;0.70;;;;;;;18.86;57.67;95578.84;5035606;28;20024;-30
2023/05/02 02:49:48;;;;;;;1.55;0.60;;;;;;;19.08;57.53;95577.31;5034399;28;20025;-29
2023/05/02 02:52:17;;;;;;;2.22;0.63;;;;;;;19.16;57.25;95572.81;5042001;28;20465;-29
2023/05/02 02:54:50;;;;;;;3.13;0.80;;;;;;;19.02;57.41;95580.09;5033863;28;20057;-29
2023/05/02 02:57:18;;;;;;;;;;;;;;;19.00;57.54;95577.84;5034981;28;20025;-30
2023/05/02 02:59:59;;;;;;;1.08;0.75;;;;;;;18.87;58.04;95577.59;5034182;28;19998;-31
2023/05/02 03:02:31;;;;;;;1.70;0.77;;;;;;;19.09;57.26;95578.81;5041670;28;20048;-29
2023/05/02 03:04:57;;;;;;;1.23;0.85;;;;;;;19.11;57.53;95576.31;5034942;28;20531;-29
2023/05/02 03:07:23;;;;;;;1.63;1.02;;;;;;;19.08;57.28;95578.06;5034039;28;20112;-29
2023/05/02 03:09:50;;;;;;;1.90;0.82;;;;;;;18.94;57.35;95568.09;5034300;28;20155;-30
2023/05/02 03:12:15;;;;;;;1.33;0.93;;;;;;;18.98;56.79;95572.09;5033046;28;20040;-30
2023/05/02 03:14:41;;;;;;;0.82;0.50;;;;;;;18.96;56.94;95568.34;5033849;28;20025;-30
2023/05/02 03:17:09;;;;;;;0.68;0.50;;;;;;;19.00;56.64;95566.84;5034056;28;20021;-32
2023/05/02 03:19:36;;;;;;;0.68;0.60;;;;;;;18.85;57.25;95563.63;5033632;28;20039;-30
2023/05/02 03:22:02;;;;;;;3.80;0.60;;;;;;;18.97;56.94;95570.59;5036184;28;20104;-30
2023/05/02 03:24:27;;;;;;;0.60;0.50;;;;;;;19.11;56.21;95568.81;5033500;28;20053;-31
2023/05/02 03:26:57;;;;;;;0.90;0.43;;;;;;;19.14;56.37;95569.81;5033827;28;20418;-30
2023/05/02 03:29:24;;;;;;;0.60;0.50;;;;;;;18.96;56.30;95571.84;5033850;28;20022;-30
2023/05/02 03:31:50;;;;;;;0.95;0.65;;;;;;;19.06;56.09;95560.56;5033766;28;20028;-29
2023/05/02 03:34:15;;;;;;;2.03;0.60;;;;;;;19.05;56.35;95561.81;5033620;28;20030;-30
2023/05/02 03:36:41;;;;;;;0.70;0.55;;;;;;;18.95;56.68;95570.34;5033721;28;20032;-29
2023/05/02 03:39:06;;;;;;;0.63;0.52;;;;;;;18.86;56.73;95569.84;5033467;28;20351;-29
2023/05/02 03:41:32;;;;;;;1.45;0.57;;;;;;;18.76;56.91;95572.13;5033700;28;20017;-29
2023/05/02 03:43:57;;;;;;;0.50;0.40;;;;;;;18.96;56.59;95569.09;5033555;28;20435;-29
2023/05/02 03:46:23;;;;;;;0.80;0.57;;;;;;;18.95;56.40;95564.84;5036285;28;20495;-30
2023/05/02 03:48:49;;;;;;;0.80;0.55;;;;;;;18.99;56.22;95568.09;5033659;28;20025;-30
2023/05/02 03:51:15;;;;;;;1.20;0.60;;;;;;;18.87;56.55;95569.34;5033564;28;20071;-30
2023/05/02 03:53:40;;;;;;;0.90;0.60;;;;;;;18.95;56.18;95575.84;5033268;28;20045;-30
2023/05/02 03:56:07;;;;;;;1.25;0.50;;;;;;;18.94;56.22;95581.81;5033021;28;20350;-31
2023/05/02 03:58:35;;;;;;;0.93;0.52;;;;;;;18.81;56.59;95587.09;5033096;28;20028;-30
2023/05/02 04:01:00;;;;;;;1.67;0.60;;;;;;;18.97;56.26;95578.81;5033377;28;20025;-30
2023/05/02 04:03:27;;;;;;;0.93;0.50;;;;;;;19.05;56.09;95575.56;5033448;28;20473;-30
2023/05/02 04:05:52;;;;;;;1.85;0.65;;;;;;;18.86;56.54;95584.34;5033815;28;20055;-31
2023/05/02 04:08:18;;;;;;;0.82;0.50;;;;;;;18.97;55.91;95578.81;5033304;28;20014;-29
2023/05/02 04:10:44;;;;;;;0.60;0.45;;;;;;;18.95;55.96;95591.56;5033328;28;20473;-31
2023/05/02 04:13:09;;;;;;;3.33;0.60;;;;;;;19.05;55.84;95589.28;5032687;28;20036;-31
2023/05/02 04:15:36;;;;;;;1.48;0.50;;;;;;;18.85;56.44;95602.06;5033366;28;20029;-29
2023/05/02 04:18:02;;;;;;;2.70;0.60;;;;;;;18.93;55.95;95600.31;5033023;28;20017;-29
2023/05/02 04:20:28;;;;;;;2.28;0.73;;;;;;;18.92;55.99;95604.31;5032980;28;20080;-29
2023/05/02 04:22:54;;;;;;;0.75;0.45;;;;;;;18.95;55.79;95616.28;5033061;28;20028;-30
2023/05/02 04:25:19;;;;;;;0.80;0.57;;;;;;;18.83;56.02;95615.56;5032921;28;20018;-29
2023/05/02 04:27:44;;;;;;;2.63;0.70;;;;;;;18.95;55.75;95610.81;5033214;28;20018;-30
2023/05/02 04:30:10;;;;;;;2.13;0.80;;;;;;;18.78;56.01;95615.56;5032810;28;20018;-30
2023/05/02 04:32:36;;;;;;;1.45;0.80;;;;;;;18.65;56.53;95607.84;5032609;28;20477;-30
2023/05/02 04:35:02;;;;;;;1.23;0.80;;;;;;;18.72;56.59;95612.81;5037067;28;20389;-30
2023/05/02 04:37:28;;;;;;;1.77;0.70;;;;;;;18.94;55.95;95612.03;5036805;28;20025;-30
2023/05/02 04:39:53;;;;;;;2.22;0.70;;;;;;;18.71;56.62;95621.53;5039321;28;20025;-30
2023/05/02 04:42:18;;;;;;;4.30;1.10;;;;;;;18.84;56.32;95617.06;5042220;28;20028;-30
2023/05/02 04:44:44;;;;;;;1.05;0.80;;;;;;;18.74;56.73;95615.81;5036827;28;20021;-30
2023/05/02 04:47:09;;;;;;;1.27;0.82;;;;;;;18.65;56.95;95616.81;5043966;28;20018;-30
2023/05/02 04:49:35;;;;;;;1.27;0.65;;;;;;;18.96;56.27;95624.03;5036586;28;20025;-30
2023/05/02 04:52:00;;;;;;;2.58;0.90;;;;;;;18.78;56.54;95627.31;5036586;28;20112;-30
2023/05/02 04:54:26;;;;;;;6.57;0.95;;;;;;;18.76;56.71;95627.06;5036415;28;20041;-30
2023/05/02 04:56:52;;;;;;;2.45;0.77;;;;;;;18.75;56.80;95627.56;5036374;28;20029;-29
2023/05/02 04:59:17;;;;;;;1.83;0.90;;;;;;;18.84;56.50;95625.28;5036176;28;20021;-30
2023/05/02 05:01:44;;;;;;;1.80;0.80;;;;;;;18.76;56.80;95629.81;5036619;28;20028;-31
2023/05/02 05:04:09;;;;;;;1.73;0.93;;;;;;;18.63;57.09;95633.03;5036921;28;20067;-29
2023/05/02 05:06:34;;;;;;;2.95;0.90;;;;;;;19.00;56.11;95635.53;5036734;28;20385;-29
2023/05/02 05:09:00;;;;;;;2.42;0.90;;;;;;;18.84;56.45;95638.28;5035112;28;20022;-30
2023/05/02 05:11:26;;;;;;;2.72;0.93;;;;;;;18.92;56.38;95640.03;5036297;28;20029;-30
2023/05/02 05:13:51;;;;;;;1.10;0.80;;;;;;;18.86;56.59;95649.53;5036347;28;20022;-29
2023/05/02 05:16:16;;;;;;;1.50;0.60;;;;;;;19.11;55.80;95651.25;5036655;28;20027;-30
2023/05/02 05:18:42;;;;;;;3.03;0.95;;;;;;;18.89;56.72;95643.78;5036504;28;20354;-29
2023/05/02 05:21:09;;;;;;;1.20;0.75;;;;;;;18.72;57.21;95651.25;5035833;28;20024;-30
2023/05/02 05:23:37;;;;;;;1.50;0.73;;;;;;;18.95;56.80;95650.00;5036087;28;20533;-30
2023/05/02 05:26:09;;;;;;;1.58;0.60;;;;;;;19.03;56.66;95653.03;5036297;28;20033;-30
2023/05/02 05:28:35;;;;;;;2.17;0.80;;;;;;;19.06;56.25;95657.50;5036011;28;20029;-30
2023/05/02 05:31:08;;;;;;;2.00;0.90;;;;;;;19.14;56.14;95653.00;5035820;28;20025;-29
2023/05/02 05:33:34;;;;;;;2.53;1.50;;;;;;;19.01;56.77;95652.78;5043743;28;20029;-29
2023/05/02 05:36:07;;;;;;;2.17;0.80;;;;;;;19.09;56.76;95653.75;5035748;28;20029;-29
2023/05/02 05:38:33;;;;;;;5.50;0.90;;;;;;;19.15;56.41;95654.50;5035530;28;20065;-29
2023/05/02 05:40:58;;;;;;;2.80;0.75;;;;;;;18.94;57.27;95645.00;5035766;28;20052;-29
2023/05/02 05:43:25;;;;;;;1.98;0.80;;;;;;;19.05;57.08;95652.50;5037468;28;20021;-29
2023/05/02 05:45:54;;;;;;;2.78;0.73;;;;;;;18.94;57.41;95651.25;5035111;28;20017;-29
2023/05/02 05:48:20;;;;;;;1.45;0.85;;;;;;;19.08;56.79;95643.25;5042123;28;20017;-29
2023/05/02 05:50:45;;;;;;;2.00;0.80;;;;;;;19.03;56.84;95653.03;5035504;28;20449;-30
2023/05/02 05:53:11;;;;;;;0.95;0.70;;;;;;;19.02;56.64;95663.28;5035670;28;20022;-30
2023/05/02 05:55:37;;;;;;;4.38;1.13;;;;;;;19.04;57.06;95664.78;5035708;28;20025;-29
2023/05/02 05:58:03;;;;;;;2.30;1.30;;;;;;;19.02;56.99;95655.03;5035190;28;20030;-29
2023/05/02 06:00:29;;;;;;;5.80;1.60;;;;;;;19.12;56.81;95665.75;5035469;28;20029;-30
2023/05/02 06:02:55;;;;;;;2.75;1.67;;;;;;;19.07;57.03;95664.50;5035618;28;20025;-29
2023/05/02 06:05:20;;;;;;;4.90;1.33;;;;;;;19.29;56.33;95663.72;5035498;28;20056;-29
2023/05/02 06:07:46;;;;;;;3.83;1.25;;;;;;;18.89;57.42;95665.03;5035383;28;20029;-31
2023/05/02 06:10:11;;;;;;;4.05;2.22;;;;;;;19.15;56.92;95671.00;5035098;28;20026;-29
2023/05/02 06:12:37;;;;;;;2.85;1.00;;;;;;;19.14;56.82;95666.75;5035454;28;20013;-29
2023/05/02 06:15:02;;;;;;;2.17;0.93;;;;;;;19.04;57.25;95670.25;5035129;28;20050;-29
2023/05/02 06:17:28;;;;;;;3.08;0.70;;;;;;;19.13;56.99;95667.25;5035047;28;20052;-29
2023/05/02 06:19:53;;;;;;;2.67;1.42;;;;;;;19.04;57.03;95670.25;5035186;28;20021;-29
2023/05/02 06:22:18;;;;;;;1.10;0.60;;;;;;;19.13;57.17;95678.25;5035227;28;20021;-30
2023/05/02 06:24:44;;;;;;;2.10;0.80;;;;;;;19.18;56.69;95674.72;5035218;28;20017;-29
2023/05/02 06:27:09;;;;;;;3.47;0.90;;;;;;;18.90;58.22;95670.00;5034768;28;20017;-30
2023/05/02 06:29:35;;;;;;;2.40;0.90;;;;;;;18.97;58.10;95675.00;5035143;28;20024;-31
2023/05/02 06:32:00;;;;;;;2.65;1.05;;;;;;;18.97;58.72;95669.50;5034877;28;20028;-29
2023/05/02 06:34:26;;;;;;;1.58;1.02;;;;;;;18.63;60.20;95684.47;5034788;28;20108;-30
2023/05/02 06:36:57;;;;;;;1.92;0.80;;;;;;;18.83;59.52;95681.50;5034950;28;20076;-29
2023/05/02 06:39:23;;;;;;;2.97;1.02;;;;;;;18.91;59.20;95688.00;5044420;28;20033;-29
2023/05/02 06:41:49;;;;;;;0.73;0.70;;;;;;;18.96;59.21;95681.75;5036011;28;20109;-30
2023/05/02 06:44:15;;;;;;;1.40;0.70;;;;;;;19.11;59.12;95686.25;5034623;28;20029;-29
2023/05/02 06:46:40;;;;;;;2.80;0.82;;;;;;;19.15;58.80;95684.00;5041656;28;20036;-30
2023/05/02 06:49:06;;;;;;;1.35;0.77;;;;;;;19.25;58.42;95693.47;5034703;28;20453;-29
2023/05/02 06:51:31;;;;;;;0.98;0.60;;;;;;;19.06;58.48;95695.22;5034587;28;20036;-29
2023/05/02 06:53:57;;;;;;;3.85;0.70;;;;;;;19.18;58.50;95691.97;5033978;28;20045;-31
2023/05/02 06:56:26;;;;;;;0.73;0.55;;;;;;;19.13;58.74;95694.75;5033989;28;20119;-29
2023/05/02 06:58:52;;;;;;;4.40;0.77;;;;;;;19.23;58.30;95693.97;5034218;28;20029;-30
2023/05/02 07:01:18;;;;;;;1.27;0.70;;;;;;;19.17;58.61;95690.47;5034374;28;20032;-29
2023/05/02 07:03:44;;;;;;;1.17;0.75;;;;;;;19.12;58.77;95693.25;5034436;28;20021;-29
2023/05/02 07:06:11;;;;;;;5.28;1.00;;;;;;;19.14;58.80;95690.75;5034182;28;20053;-29
2023/05/02 07:08:36;;;;;;;3.83;1.05;;;;;;;18.95;59.55;95698.72;5034003;28;20021;-29
2023/05/02 07:11:02;;;;;;;2.95;1.00;;;;;;;19.17;58.91;95695.97;5034505;28;20021;-29
2023/05/02 07:13:29;;;;;;;0.80;0.70;;;;;;;18.99;59.52;95701.97;5033082;28;20064;-30
2023/05/02 07:15:55;;;;;;;3.90;1.08;;;;;;;19.01;59.40;95702.25;5033993;28;20022;-29
2023/05/02 07:18:20;;;;;;;2.50;0.98;;;;;;;19.17;58.91;95706.22;5033931;28;20026;-29
2023/05/02 07:20:46;;;;;;;3.88;1.10;;;;;;;19.16;59.10;95699.25;5034142;28;20112;-31
2023/05/02 07:23:11;;;;;;;2.22;0.88;;;;;;;19.23;58.59;95704.22;5034022;28;20024;-29
2023/05/02 07:25:38;;;;;;;7.07;1.70;;;;;;;19.28;58.76;95706.97;5033870;28;20029;-29
2023/05/02 07:28:04;;;;;;;4.45;1.30;;;;;;;19.06;59.56;95717.22;5034233;28;20024;-29
2023/05/02 07:30:29;;;;;;;1.75;1.00;;;;;;;19.00;60.07;95720.72;5039540;28;20029;-29
2023/05/02 07:32:55;;;;;;;1.10;0.98;;;;;;;19.04;59.63;95717.69;5033651;28;20025;-29
2023/05/02 07:35:20;;;;;;;4.60;1.40;;;;;;;19.30;59.22;95717.44;5040980;28;20025;-29
2023/05/02 07:37:46;;;;;;;1.70;1.05;;;;;;;19.09;59.63;95721.72;5033623;28;20030;-30
2023/05/02 07:40:11;;;;;;;4.35;1.38;;;;;;;19.27;59.57;95712.97;5033452;28;20013;-29
2023/05/02 07:42:40;;;;;;;3.80;1.00;;;;;;;19.09;59.98;95722.47;5033381;28;20116;-29
2023/05/02 07:45:06;;;;;;;2.65;1.10;;;;;;;19.10;59.81;95721.22;5042313;28;20453;-29
2023/05/02 07:47:31;;;;;;;5.38;1.20;;;;;;;19.23;59.41;95720.72;5043739;28;20079;-31
2023/05/02 07:49:56;;;;;;;4.75;1.40;;;;;;;19.12;60.01;95723.47;5035434;28;20018;-29
2023/05/02 07:52:22;;;;;;;4.55;1.40;;;;;;;18.91;60.58;95729.22;5033760;28;20454;-31
2023/05/02 07:54:50;;;;;;;2.03;1.38;;;;;;;19.18;59.72;95729.69;5033199;28;20472;-29
2023/05/02 07:57:17;;;;;;;5.95;1.30;;;;;;;19.24;59.55;95735.97;5033819;28;20055;-29
2023/05/02 07:59:42;;;;;;;2.33;1.20;;;;;;;19.12;60.03;95745.47;5033491;28;20559;-29
2023/05/02 08:02:08;;;;;;;1.80;1.40;;;;;;;19.24;59.55;95747.72;5033230;28;20021;-30
2023/05/02 08:04:34;;;;;;;2.17;1.50;;;;;;;19.18;59.96;95749.69;5033283;28;20402;-29
2023/05/02 08:06:59;;;;;;;3.10;1.50;;;;;;;18.87;60.65;95745.19;5032806;28;20021;-29
2023/05/02 08:09:25;;;;;;;1.30;1.13;;;;;;;18.95;60.42;95751.69;5033175;28;20025;-29
2023/05/02 08:11:51;;;;;;;2.30;1.40;;;;;;;19.14;60.00;95740.97;5033549;28;20017;-29
2023/05/02 08:14:16;;;;;;;4.78;1.50;;;;;;;19.11;60.84;95752.19;5033095;28;20025;-31
2023/05/02 08:16:42;;;;;;;9.75;1.98;;;;;;;19.22;60.34;95750.22;5033186;28;20104;-30
2023/05/02 08:19:08;;;;;;;9.57;1.40;;;;;;;19.09;60.21;95754.69;5032968;28;20030;-29
2023/05/02 08:21:34;;;;;;;2.45;1.20;;;;;;;18.95;60.48;95762.66;5033550;28;20029;-29
2023/05/02 08:24:00;;;;;;;1.67;1.10;;;;;;;19.28;59.86;95758.47;5033034;28;20017;-29
2023/05/02 08:26:27;;;;;;;2.13;1.10;;;;;;;19.09;59.88;95765.69;5032903;28;20033;-29
2023/05/02 08:28:53;;;;;;;3.40;0.70;;;;;;;19.08;60.00;95772.44;5033791;28;20354;-29
2023/05/02 08:31:19;;;;;;;1.10;0.80;;;;;;;19.40;58.81;95765.47;5032747;28;20422;-29
2023/05/02 08:33:45;;;;;;;0.95;0.60;;;;;;;19.14;59.77;95773.19;5033221;28;20458;-30
2023/05/02 08:36:12;;;;;;;1.33;0.75;;;;;;;19.35;59.17;95772.44;5032986;28;20064;-29
2023/05/02 08:38:37;;;;;;;0.90;0.70;;;;;;;18.98;60.48;95774.66;5039569;28;20029;-29
2023/05/02 08:41:09;;;;;;;1.00;0.70;;;;;;;19.25;59.49;95778.69;5032713;28;20021;-30
2023/05/02 08:43:35;;;;;;;0.90;0.63;;;;;;;19.37;58.97;95764.47;5033183;28;20022;-29
2023/05/02 08:46:06;;;;;;;1.50;0.60;;;;;;;19.45;58.29;95774.94;5033364;28;20055;-31
2023/05/02 08:48:34;;;;;;;1.27;0.52;;;;;;;19.39;58.72;95780.47;5033057;28;20024;-29
2023/05/02 08:51:01;;;;;;;2.15;0.70;;;;;;;19.68;57.55;95779.94;5033068;28;20033;-29
2023/05/02 08:53:31;;;;;;;0.82;0.50;;;;;;;19.68;57.96;95777.19;5032505;28;20025;-29
2023/05/02 08:55:57;;;;;;;5.18;0.65;;;;;;;19.79;56.87;95770.94;5032834;28;20037;-30
2023/05/02 08:58:22;;;;;;;1.00;0.52;;;;;;;19.77;56.96;95778.97;5032808;28;20021;-29
2023/05/02 09:00:50;;;;;;;0.70;0.50;;;;;;;19.75;57.44;95780.72;5032403;28;20385;-29
2023/05/02 09:03:31;;;;;;;1.75;1.40;;;;;;;19.53;58.31;95779.50;5032840;28;20025;-30
2023/05/02 09:06:06;;;;;;;3.25;1.13;;;;;;;19.69;57.34;95789.72;5032820;28;20037;-29
2023/05/02 09:08:33;;;;;;;2.67;1.83;;;;;;;19.77;57.22;95791.97;5039965;28;20029;-30
2023/05/02 09:10:58;;;;;;;1.60;1.42;;;;;;;19.91;56.82;95791.66;5032689;28;20021;-29
2023/05/02 09:13:33;;;;;;;1.92;1.20;;;;;;;19.72;57.83;95790.72;5031430;28;20025;-29
2023/05/02 09:16:07;;;;;;;3.00;1.42;;;;;;;19.75;57.21;95803.47;5032684;28;20025;-31
2023/05/02 09:18:46;;;;;;;1.80;1.27;;;;;;;19.89;56.47;95796.19;5033195;28;20032;-30
2023/05/02 09:21:14;;;;;;;2.92;1.58;;;;;;;19.70;57.57;95796.72;5036165;28;20017;-29
2023/05/02 09:23:43;;;;;;;3.78;2.20;;;;;;;19.57;58.42;95818.47;5036773;28;20021;-29
2023/05/02 09:26:20;;;;;;;3.05;1.85;;;;;;;19.73;57.46;95809.47;5035931;28;20017;-30
2023/05/02 09:28:50;;;;;;;3.42;2.40;;;;;;;19.88;56.71;95806.47;5036995;28;20031;-29
2023/05/02 09:31:18;;;;;;;3.78;2.63;;;;;;;19.97;56.00;95814.44;5035997;28;20113;-29
2023/05/02 09:33:44;;;;;;;3.60;2.80;;;;;;;19.99;56.04;95806.44;5036137;28;20059;-31
2023/05/02 09:36:13;;;;;;;3.83;2.85;;;;;;;19.90;56.32;95811.47;5038029;28;20032;-29
2023/05/02 09:38:40;;;;;;;5.57;4.22;;;;;;;19.96;56.57;95817.69;5037897;28;20355;-29
2023/05/02 09:41:05;;;;;;;11.75;5.28;;;;;;;19.99;56.54;95811.94;5037686;28;20033;-29
2023/05/02 09:43:32;;;;;;;5.05;3.10;;;;;;;19.94;56.28;95809.94;5035913;28;20029;-29
2023/05/02 09:46:07;;;;;;;4.18;3.03;;;;;;;20.04;56.19;95818.66;5036138;28;20026;-29
2023/05/02 09:48:53;;;;;;;8.98;2.65;;;;;;;20.12;56.16;95816.16;5035591;28;20025;-29
2023/05/02 09:51:19;;;;;;;3.65;2.70;;;;;;;20.11;56.71;95815.41;5035494;28;20025;-29
2023/05/02 09:53:45;;;;;;;4.97;2.92;;;;;;;20.10;56.36;95813.91;5035418;28;20071;-30
2023/05/02 09:56:11;;;;;;;4.32;2.42;;;;;;;20.01;56.46;95816.94;5035187;28;20116;-29
2023/05/02 09:58:36;;;;;;;3.97;2.90;;;;;;;19.97;56.63;95819.19;5035429;28;20026;-29
2023/05/02 10:01:02;;;;;;;3.50;2.75;;;;;;;20.02;56.71;95821.94;5035274;28;20482;-29
2023/05/02 10:03:28;;;;;;;3.50;2.30;;;;;;;20.00;56.70;95807.94;5035230;28;20029;-29
2023/05/02 10:05:55;;;;;;;2.72;2.30;;;;;;;20.01;56.28;95814.94;5035547;28;20061;-29
2023/05/02 10:08:24;;;;;;;2.97;2.25;;;;;;;20.05;56.45;95817.41;5035422;28;20029;-29
2023/05/02 10:10:55;;;;;;;2.50;2.08;;;;;;;20.00;56.53;95809.94;5035362;28;20060;-31
2023/05/02 10:13:23;;;;;;;2.70;2.13;;;;;;;19.90;57.07;95814.22;5035467;28;20022;-29
2023/05/02 10:15:57;;;;;;;3.53;2.38;;;;;;;20.06;56.28;95810.66;5035081;28;20029;-30
2023/05/02 10:18:28;;;;;;;2.63;2.00;;;;;;;19.90;56.99;95814.22;5035854;28;20032;-29
2023/05/02 10:21:08;;;;;;;5.97;3.90;;;;;;;19.86;57.23;95816.47;5041669;28;20021;-29
2023/05/02 10:23:33;;;;;;;2.97;2.10;;;;;;;19.99;56.62;95809.19;5033586;28;20021;-29
2023/05/02 10:25:59;;;;;;;4.53;2.85;;;;;;;20.02;56.43;95801.94;5035039;28;20045;-29
2023/05/02 10:28:28;;;;;;;6.35;4.38;;;;;;;19.92;56.98;95817.94;5034896;28;20445;-29
2023/05/02 10:30:55;;;;;;;6.70;4.10;;;;;;;19.97;56.10;95819.19;5041644;28;20061;-29
2023/05/02 10:33:21;;;;;;;9.38;4.30;;;;;;;20.04;55.93;95815.91;5034946;28;20469;-30
2023/05/02 10:35:47;;;;;;;6.07;3.78;;;;;;;20.13;55.56;95818.41;5034681;28;20021;-30
2023/05/02 10:38:19;;;;;;;6.00;4.00;;;;;;;20.12;55.43;95818.91;5034655;28;20021;-31
2023/05/02 10:40:54;;;;;;;5.15;3.53;;;;;;;20.08;55.75;95814.41;5034747;28;20061;-29
2023/05/02 10:43:22;;;;;;;4.10;2.90;;;;;;;19.83;56.06;95811.97;5040821;28;20032;-29
2023/05/02 10:45:47;;;;;;;3.78;2.70;;;;;;;20.09;55.96;95809.66;5034823;28;20033;-29
2023/05/02 10:48:18;;;;;;;3.92;2.10;;;;;;;20.06;55.74;95816.91;5033414;28;20079;-29
2023/05/02 10:50:46;;;;;;;3.35;2.40;;;;;;;20.08;55.40;95814.41;5034389;28;20083;-29
2023/05/02 10:53:21;;;;;;;3.20;2.10;;;;;;;20.05;55.56;95809.16;5034822;28;20028;-30
2023/05/02 10:56:25;;;;;;;3.50;2.22;;;;;;;20.10;55.50;95805.66;5034339;28;20127;-29
2023/05/02 10:58:52;;;;;;;3.60;2.10;;;;;;;20.06;55.50;95807.91;5034487;28;20029;-29
2023/05/02 11:01:23;;;;;;;4.50;2.30;;;;;;;20.04;55.57;95804.91;5034525;28;20032;-29
2023/05/02 11:03:59;;;;;;;12.68;6.22;;;;;;;20.14;54.37;95811.66;5034211;28;20032;-29
2023/05/02 11:06:26;;;;;;;5.70;3.42;;;;;;;20.05;54.98;95809.16;5034348;28;20021;-29
2023/05/02 11:08:52;;;;;;;8.10;4.63;;;;;;;19.97;55.30;95808.19;5034339;28;20022;-29
2023/05/02 11:11:40;;;;;;;7.32;4.40;;;;;;;20.18;54.28;95812.13;5033870;28;20036;-29
2023/05/02 11:14:05;;;;;;;5.40;4.00;;;;;;;20.13;54.34;95803.91;5034081;28;20469;-29
2023/05/02 11:16:58;;;;;;;4.97;2.90;;;;;;;19.97;55.41;95813.69;5034149;28;20021;-31
2023/05/02 11:19:27;;;;;;;5.47;3.80;;;;;;;19.99;55.20;95811.19;5033973;28;20100;-29
2023/05/02 11:22:25;;;;;;;6.07;3.60;;;;;;;19.98;54.98;95812.44;5038290;28;20029;-29
2023/05/02 11:24:52;;;;;;;5.63;3.25;;;;;;;20.10;54.77;95816.66;5034198;28;20026;-30
2023/05/02 11:27:32;;;;;;;4.50;2.25;;;;;;;20.09;54.94;95815.16;5033949;28;20021;-29
2023/05/02 11:30:08;;;;;;;4.57;2.25;;;;;;;19.98;55.19;95813.19;5034036;28;20018;-29
2023/05/02 11:32:43;;;;;;;3.15;1.63;;;;;;;20.13;54.38;95812.91;5033327;28;20082;-29
2023/05/02 11:35:23;;;;;;;2.97;1.65;;;;;;;20.13;54.80;95814.91;5034101;28;20045;-31
2023/05/02 11:37:55;;;;;;;2.20;1.52;;;;;;;20.14;54.36;95805.41;5034082;28;20056;-29
2023/05/02 11:40:22;;;;;;;3.15;1.20;;;;;;;20.12;54.74;95808.66;5033674;28;20013;-30